Nearby METAR Reports

 

KPBH - Phillips, Wisconsin, USA
Distance from station: SE 13mi, 21km
Updated: 06/17/2021 3:35am
Partly cloudy
Partly cloudy
 Wind from SSW
Wind: SSW 8 mph , 13 km/h
Temperature: 63°F , 17°C
Dew Point: 54°F , 12°C
Humidity: 73%
Barometer: 29.90 inHg , 1012.5 hPa
Clouds: Partly cloudy
Visibility: 10 miles , 16 km
Cloud details: Partly cloudy 12000 ft
2021/06/17 08:35 KPBH 170835Z AUTO 21007KT 10SM SCT120 17/12 A2990 RMK AO2 T01700116
KRCX - Ladysmith/Rusk, Wisconsin, USA
Distance from station: SW 29mi, 46km
Updated: 06/17/2021 3:35am

 Wind from S
Wind: S 5 mph , 7 km/h
Temperature: 63°F , 17°C
Dew Point: 54°F , 12°C
Humidity: 73%
Barometer: 29.92 inHg , 1013.2 hPa
Visibility: 10 miles , 16 km
2021/06/17 08:35 KRCX 170835Z AUTO 17004KT 10SM 17/12 A2992 RMK AO2 T01720124
 
KD25 - Manitowish Water, Wisconsin, USA
Distance from station: ENE 41mi, 66km
Updated: 06/17/2021 3:35am
Clear
Clear
 Wind from SSW
Wind: SSW 3 mph , 6 km/h
Temperature: 64°F , 18°C
Dew Point: 54°F , 12°C
Humidity: 68%
Barometer: 29.92 inHg , 1013.2 hPa
Clouds: Clear
Visibility: 10 miles , 16 km
2021/06/17 08:35 KD25 170835Z AUTO 20003KT 10SM CLR 18/12 A2992 RMK AO2 T01790115
KHYR - Hayward, Wisconsin, USA
Distance from station: WNW 42mi, 68km
Updated: 06/17/2021 2:53am

 
Barometer: 29.88 inHg , 1011.9 hPa
2021/06/17 07:53 KHYR 170753Z AUTO A2988 RMK AO2 SLPNO PWINO $
 
KARV - Minocqua/Woodruf, Wisconsin, USA
Distance from station: E 44mi, 71km
Updated: 06/17/2021 3:35am
Clear
Clear
 Wind from SW
Wind: SW 6 mph , 9 km/h
Temperature: 64°F , 18°C
Dew Point: 55°F , 13°C
Humidity: 73%
Barometer: 29.93 inHg , 1013.5 hPa
Clouds: Clear
Visibility: 10 miles , 16 km
2021/06/17 08:35 KARV 170835Z AUTO 22005KT 10SM CLR 18/13 A2993 RMK AO2 T01800126
KTKV - Tomahawk Regnl, Wisconsin, USA
Distance from station: ESE 46mi, 74km
Updated: 06/17/2021 3:15am
Clear
Clear
 Wind from calm
Wind: Calm
Temperature: 55°F , 13°C
Dew Point: 52°F , 11°C
Humidity: 88%
Barometer: 29.94 inHg , 1013.9 hPa
Clouds: Clear
Visibility: 10 miles , 16 km
2021/06/17 08:15 KTKV 170815Z AUTO 00000KT 10SM CLR 13/11 A2994 RMK AO2 T01340106 PWINO